createdAt,value
2022-10-17T00:00:48.522Z,12.43
2022-10-17T00:01:48.514Z,12.42
2022-10-17T00:02:48.475Z,12.43
2022-10-17T00:03:48.442Z,12.39
2022-10-17T00:04:48.423Z,12.39
2022-10-17T00:05:48.419Z,12.36
2022-10-17T00:06:48.421Z,12.35
2022-10-17T00:07:48.410Z,12.32
2022-10-17T00:08:48.381Z,12.29
2022-10-17T00:09:48.379Z,12.28
2022-10-17T00:10:48.349Z,12.28
2022-10-17T00:11:48.360Z,12.22
2022-10-17T00:12:48.358Z,12.25
2022-10-17T00:13:48.329Z,12.24
2022-10-17T00:14:48.311Z,12.28
2022-10-17T00:15:48.312Z,12.24
2022-10-17T00:16:48.289Z,12.27
2022-10-17T00:17:48.292Z,12.20
2022-10-17T00:18:48.304Z,12.21
2022-10-17T00:19:48.264Z,12.24
2022-10-17T00:20:48.242Z,12.22
2022-10-17T00:21:48.271Z,12.27
2022-10-17T00:22:48.226Z,12.29
2022-10-17T00:23:48.229Z,12.29
2022-10-17T00:24:48.229Z,12.31
2022-10-17T00:25:48.206Z,12.29
2022-10-17T00:26:48.180Z,12.28
2022-10-17T00:27:48.182Z,12.28
2022-10-17T00:28:48.280Z,12.27
2022-10-17T00:29:48.168Z,12.25
2022-10-17T00:30:48.172Z,12.24
2022-10-17T00:31:48.180Z,12.27
2022-10-17T00:32:48.109Z,12.25
2022-10-17T00:33:48.117Z,12.25
2022-10-17T00:34:48.124Z,12.27
2022-10-17T00:35:48.095Z,12.24
2022-10-17T00:36:48.093Z,12.24
2022-10-17T00:37:48.078Z,12.24
2022-10-17T00:38:48.057Z,12.24
2022-10-17T00:39:48.057Z,12.21
2022-10-17T00:40:48.067Z,12.17
2022-10-17T00:41:48.031Z,12.17
2022-10-17T00:42:48.034Z,12.17
2022-10-17T00:43:48.007Z,12.20
2022-10-17T00:44:47.997Z,12.18
2022-10-17T00:45:47.990Z,12.20
2022-10-17T00:46:47.961Z,12.18
2022-10-17T00:47:47.968Z,12.21
2022-10-17T00:48:47.962Z,12.21
2022-10-17T00:49:47.943Z,12.21
2022-10-17T00:50:47.923Z,12.21
2022-10-17T00:51:47.932Z,12.21
2022-10-17T00:52:47.894Z,12.20
2022-10-17T00:53:47.902Z,12.20
2022-10-17T00:54:47.910Z,12.20
2022-10-17T00:55:47.878Z,12.17
2022-10-17T00:56:47.860Z,12.15
2022-10-17T00:57:47.857Z,12.17
2022-10-17T00:58:47.830Z,12.15
2022-10-17T00:59:47.837Z,12.12
2022-10-17T01:00:47.839Z,12.09
2022-10-17T01:01:47.946Z,12.04
2022-10-17T01:02:47.793Z,12.00
2022-10-17T01:03:47.808Z,11.88
2022-10-17T01:04:47.764Z,11.87
2022-10-17T01:05:47.775Z,11.83
2022-10-17T01:06:47.809Z,11.78
2022-10-17T01:07:47.753Z,11.77
2022-10-17T01:08:47.727Z,11.75
2022-10-17T01:09:47.741Z,11.72
2022-10-17T01:10:47.708Z,11.75
2022-10-17T01:11:47.707Z,11.78
2022-10-17T01:12:47.729Z,11.83
2022-10-17T01:13:47.688Z,11.84
2022-10-17T01:14:47.666Z,11.87
2022-10-17T01:15:47.673Z,11.87
2022-10-17T01:16:47.639Z,11.87
2022-10-17T01:17:47.640Z,11.86
2022-10-17T01:18:47.642Z,11.87
2022-10-17T01:19:47.634Z,11.88
2022-10-17T01:20:47.605Z,11.84
2022-10-17T01:21:47.600Z,11.83
2022-10-17T01:22:47.579Z,11.84
2022-10-17T01:23:47.580Z,11.84
2022-10-17T01:24:47.585Z,11.87
2022-10-17T01:25:47.564Z,11.87
2022-10-17T01:26:47.537Z,11.86
2022-10-17T01:27:47.552Z,11.86
2022-10-17T01:28:47.511Z,11.84
2022-10-17T01:29:47.513Z,11.84
2022-10-17T01:30:47.515Z,11.83
2022-10-17T01:31:47.489Z,11.80
2022-10-17T01:32:47.468Z,11.78
2022-10-17T01:33:47.476Z,11.73
2022-10-17T01:34:47.451Z,11.72
2022-10-17T01:35:47.451Z,11.70
2022-10-17T01:36:47.462Z,11.70
2022-10-17T01:37:47.517Z,11.69
2022-10-17T01:38:47.409Z,11.72
2022-10-17T01:39:47.911Z,11.75
2022-10-17T01:40:47.379Z,11.73
2022-10-17T01:41:47.383Z,11.70
2022-10-17T01:42:47.397Z,11.70
2022-10-17T01:43:47.358Z,11.68
2022-10-17T01:44:47.338Z,11.65
2022-10-17T01:45:47.349Z,11.66
2022-10-17T01:46:47.461Z,11.68
2022-10-17T01:47:47.317Z,11.68
2022-10-17T01:48:47.351Z,11.66
2022-10-17T01:49:47.322Z,11.66
2022-10-17T01:50:47.269Z,11.70
2022-10-17T01:51:47.278Z,11.66
2022-10-17T01:52:47.249Z,11.65
2022-10-17T01:53:47.266Z,11.68
2022-10-17T01:54:47.469Z,11.62
2022-10-17T01:55:47.328Z,11.63
2022-10-17T01:56:47.225Z,11.62
2022-10-17T01:57:47.218Z,11.59
2022-10-17T01:58:47.193Z,11.57
2022-10-17T01:59:47.196Z,11.60
2022-10-17T02:00:47.436Z,11.63
2022-10-17T02:01:47.242Z,11.66
2022-10-17T02:02:47.144Z,11.68
2022-10-17T02:03:47.148Z,11.69
2022-10-17T02:04:47.120Z,11.68
2022-10-17T02:05:47.131Z,11.69
2022-10-17T02:06:47.126Z,11.66
2022-10-17T02:07:47.101Z,11.68
2022-10-17T02:08:47.082Z,11.62
2022-10-17T02:09:47.081Z,11.60
2022-10-17T02:10:47.069Z,11.59
2022-10-17T02:11:47.073Z,11.60
2022-10-17T02:12:47.107Z,11.59
2022-10-17T02:13:47.039Z,11.57
2022-10-17T02:14:47.024Z,11.59
2022-10-17T02:15:47.015Z,11.57
2022-10-17T02:16:46.999Z,11.57
2022-10-17T02:17:47.004Z,11.60
2022-10-17T02:18:47.003Z,11.62
2022-10-17T02:19:46.982Z,11.59
2022-10-17T02:20:46.953Z,11.57
2022-10-17T02:21:46.957Z,11.59
2022-10-17T02:22:46.945Z,11.59
2022-10-17T02:23:46.936Z,11.57
2022-10-17T02:24:46.941Z,11.60
2022-10-17T02:25:46.928Z,11.54
2022-10-17T02:26:46.891Z,11.59
2022-10-17T02:27:46.890Z,11.59
2022-10-17T02:28:46.911Z,11.59
2022-10-17T02:29:46.872Z,11.60
2022-10-17T02:30:46.886Z,11.60
2022-10-17T02:31:46.853Z,11.57
2022-10-17T02:32:49.479Z,11.57
2022-10-17T02:33:46.828Z,11.54
2022-10-17T02:34:46.813Z,11.55
2022-10-17T02:35:46.810Z,11.59
2022-10-17T02:36:46.830Z,11.54
2022-10-17T02:37:46.807Z,11.59
2022-10-17T02:38:46.770Z,11.59
2022-10-17T02:39:46.781Z,11.62
2022-10-17T02:40:46.736Z,11.63
2022-10-17T02:41:46.726Z,11.65
2022-10-17T02:42:46.777Z,11.65
2022-10-17T02:43:46.706Z,11.69
2022-10-17T02:44:46.704Z,11.69
2022-10-17T02:45:46.687Z,11.70
2022-10-17T02:46:46.690Z,11.70
2022-10-17T02:47:46.686Z,11.69
2022-10-17T02:48:46.695Z,11.68
2022-10-17T02:49:46.640Z,11.68
2022-10-17T02:50:46.643Z,11.66
2022-10-17T02:51:46.614Z,11.68
2022-10-17T02:52:46.627Z,11.66
2022-10-17T02:53:46.594Z,11.69
2022-10-17T02:54:46.618Z,11.65
2022-10-17T02:55:46.580Z,11.66
2022-10-17T02:56:46.577Z,11.63
2022-10-17T02:57:46.571Z,11.62
2022-10-17T02:58:46.553Z,11.60
2022-10-17T02:59:46.534Z,11.55
2022-10-17T03:00:46.567Z,11.55
2022-10-17T03:01:46.511Z,11.54
2022-10-17T03:02:46.524Z,11.55
2022-10-17T03:03:46.505Z,11.54
2022-10-17T03:04:46.492Z,11.54
2022-10-17T03:05:46.466Z,11.51
2022-10-17T03:06:46.493Z,11.48
2022-10-17T03:07:46.448Z,11.51
2022-10-17T03:08:46.458Z,11.51
2022-10-17T03:09:46.424Z,11.51
2022-10-17T03:10:46.431Z,11.50
2022-10-17T03:11:46.407Z,11.52
2022-10-17T03:12:46.440Z,11.52
2022-10-17T03:13:46.382Z,11.52
2022-10-17T03:14:46.381Z,11.57
2022-10-17T03:15:46.365Z,11.55
2022-10-17T03:16:46.369Z,11.54
2022-10-17T03:18:49.326Z,11.52
2022-10-17T03:19:46.326Z,11.52
2022-10-17T03:20:46.309Z,11.52
2022-10-17T03:21:46.308Z,11.52
2022-10-17T03:22:46.290Z,11.55
2022-10-17T03:23:46.290Z,11.55
2022-10-17T03:24:46.314Z,11.55
2022-10-17T03:25:46.261Z,11.55
2022-10-17T03:27:46.270Z,11.55
2022-10-17T03:28:47.621Z,11.54
2022-10-17T03:29:46.218Z,11.52
2022-10-17T03:30:46.248Z,11.52
2022-10-17T03:31:46.201Z,11.55
2022-10-17T03:32:46.176Z,11.55
2022-10-17T03:33:46.178Z,11.55
2022-10-17T03:34:46.157Z,11.57
2022-10-17T03:35:46.195Z,11.59
2022-10-17T03:36:46.157Z,11.59
2022-10-17T03:37:46.138Z,11.59
2022-10-17T03:38:46.112Z,11.60
2022-10-17T03:39:46.117Z,11.66
2022-10-17T03:40:46.099Z,11.66
2022-10-17T03:41:46.096Z,11.66
2022-10-17T03:42:46.099Z,11.66
2022-10-17T03:43:46.079Z,11.66
2022-10-17T03:44:46.059Z,11.66
2022-10-17T03:45:46.060Z,11.66
2022-10-17T03:46:46.022Z,11.66
2022-10-17T03:47:46.029Z,11.68
2022-10-17T03:48:46.136Z,11.65
2022-10-17T03:49:46.006Z,11.65
2022-10-17T03:50:45.986Z,11.66
2022-10-17T03:51:45.984Z,11.66
2022-10-17T03:52:45.963Z,11.68
2022-10-17T03:53:45.967Z,11.66
2022-10-17T03:54:45.961Z,11.68
2022-10-17T03:55:45.940Z,11.68
2022-10-17T03:56:45.966Z,11.66
2022-10-17T03:57:45.929Z,11.63
2022-10-17T03:58:45.895Z,11.62
2022-10-17T03:59:45.908Z,11.63
2022-10-17T04:00:45.911Z,11.63
2022-10-17T04:01:45.917Z,11.60
2022-10-17T04:02:45.851Z,11.59
2022-10-17T04:03:45.864Z,11.62
2022-10-17T04:04:45.828Z,11.63
2022-10-17T04:05:45.864Z,11.63
2022-10-17T04:06:45.841Z,11.65
2022-10-17T04:07:45.819Z,11.66
2022-10-17T04:08:45.789Z,11.69
2022-10-17T04:09:45.803Z,11.66
2022-10-17T04:10:45.767Z,11.66
2022-10-17T04:11:45.771Z,11.62
2022-10-17T04:12:45.786Z,11.62
2022-10-17T04:13:45.764Z,11.69
2022-10-17T04:14:45.723Z,11.69
2022-10-17T04:15:45.731Z,11.70
2022-10-17T04:16:45.703Z,11.72
2022-10-17T04:17:45.833Z,11.73
2022-10-17T04:18:45.714Z,11.70
2022-10-17T04:19:45.683Z,11.68
2022-10-17T04:20:45.664Z,11.68
2022-10-17T04:21:45.671Z,11.68
2022-10-17T04:22:45.640Z,11.69
2022-10-17T04:23:45.645Z,11.68
2022-10-17T04:24:45.663Z,11.68
2022-10-17T04:25:45.624Z,11.68
2022-10-17T04:26:45.600Z,11.70
2022-10-17T04:27:45.601Z,11.70
2022-10-17T04:28:45.597Z,11.73
2022-10-17T04:29:45.579Z,11.75
2022-10-17T04:30:45.742Z,11.72
2022-10-17T04:31:45.553Z,11.75
2022-10-17T04:32:45.544Z,11.77
2022-10-17T04:33:45.537Z,11.75
2022-10-17T04:34:45.508Z,11.77
2022-10-17T04:35:45.526Z,11.78
2022-10-17T04:36:45.524Z,11.80
2022-10-17T04:37:45.488Z,11.80
2022-10-17T04:38:45.481Z,11.84
2022-10-17T04:39:45.470Z,11.84
2022-10-17T04:40:45.445Z,11.84
2022-10-17T04:41:45.446Z,11.86
2022-10-17T04:42:45.463Z,11.88
2022-10-17T04:43:48.496Z,11.88
2022-10-17T04:44:45.413Z,11.90
2022-10-17T04:45:45.406Z,11.88
2022-10-17T04:46:45.380Z,11.87
2022-10-17T04:47:45.399Z,11.88
2022-10-17T04:48:45.391Z,11.94
2022-10-17T04:49:45.364Z,11.94
2022-10-17T04:50:45.337Z,11.95
2022-10-17T04:51:45.341Z,11.95
2022-10-17T04:52:45.319Z,11.95
2022-10-17T04:53:45.321Z,11.95
2022-10-17T04:54:45.348Z,11.97
2022-10-17T04:55:45.297Z,11.97
2022-10-17T04:56:45.290Z,12.00
2022-10-17T04:57:45.278Z,12.07
2022-10-17T04:58:45.258Z,12.10
2022-10-17T04:59:45.253Z,12.12
2022-10-17T05:00:45.332Z,12.13
2022-10-17T05:01:45.232Z,12.13
2022-10-17T05:02:45.210Z,12.13
2022-10-17T05:03:45.226Z,12.17
2022-10-17T05:04:45.193Z,12.20
2022-10-17T05:05:45.190Z,12.24
2022-10-17T05:06:45.191Z,12.25
2022-10-17T05:07:45.169Z,12.27
2022-10-17T05:08:45.150Z,12.32
2022-10-17T05:09:45.228Z,12.36
2022-10-17T05:10:45.117Z,12.37
2022-10-17T05:11:45.120Z,12.40
2022-10-17T05:12:45.131Z,12.40
2022-10-17T05:13:45.103Z,12.40
2022-10-17T05:14:45.079Z,12.42
2022-10-17T05:15:45.084Z,12.42
2022-10-17T05:16:45.052Z,12.40
2022-10-17T05:17:45.071Z,12.42
2022-10-17T05:18:48.377Z,12.42
2022-10-17T05:19:45.051Z,12.45
2022-10-17T05:20:45.012Z,12.43
2022-10-17T05:21:45.018Z,12.46
2022-10-17T05:22:44.994Z,12.49
2022-10-17T05:23:44.990Z,12.49
2022-10-17T05:24:44.992Z,12.49
2022-10-17T05:25:44.975Z,12.47
2022-10-17T05:26:44.949Z,12.50
2022-10-17T05:27:44.952Z,12.54
2022-10-17T05:28:44.967Z,12.50
2022-10-17T05:29:44.933Z,12.53
2022-10-17T05:30:45.022Z,12.54
2022-10-17T05:31:44.906Z,12.55
2022-10-17T05:32:44.994Z,12.58
2022-10-17T05:33:44.892Z,12.61
2022-10-17T05:34:44.858Z,12.75
2022-10-17T05:35:44.864Z,12.93
2022-10-17T05:36:44.906Z,12.91
2022-10-17T05:37:44.847Z,13.31
2022-10-17T05:38:44.824Z,13.49
2022-10-17T05:39:49.148Z,13.62
2022-10-17T05:40:44.802Z,13.93
2022-10-17T05:41:44.804Z,14.12
2022-10-17T05:42:44.816Z,14.30
2022-10-17T05:43:44.783Z,14.45
2022-10-17T05:44:44.756Z,14.59
2022-10-17T05:45:44.767Z,14.72
2022-10-17T05:46:44.740Z,14.85
2022-10-17T05:47:44.740Z,14.96
2022-10-17T05:48:44.734Z,15.14
2022-10-17T05:49:48.585Z,15.18
2022-10-17T05:50:44.700Z,15.18
2022-10-17T05:51:44.697Z,15.14
2022-10-17T05:52:46.515Z,15.21
2022-10-17T05:53:44.698Z,15.24
2022-10-17T05:54:44.681Z,15.39
2022-10-17T05:55:44.649Z,15.40
2022-10-17T05:56:44.623Z,15.37
2022-10-17T05:57:44.625Z,15.33
2022-10-17T05:58:50.264Z,15.72
2022-10-17T05:59:44.611Z,15.82
2022-10-17T06:01:44.619Z,15.80
2022-10-17T06:02:44.560Z,15.73
2022-10-17T06:03:44.564Z,15.75
2022-10-17T06:04:44.539Z,15.73
2022-10-17T06:05:44.547Z,15.72
2022-10-17T06:06:44.556Z,15.65
2022-10-17T06:07:44.522Z,15.62
2022-10-17T06:08:44.537Z,15.64
2022-10-17T06:10:44.476Z,15.49
2022-10-17T06:11:44.478Z,15.62
2022-10-17T06:12:44.487Z,15.84
2022-10-17T06:13:44.469Z,15.84
2022-10-17T06:14:44.428Z,15.88
2022-10-17T06:15:44.434Z,15.92
2022-10-17T06:16:44.413Z,16.00
2022-10-17T06:17:44.436Z,16.02
2022-10-17T06:18:44.464Z,16.02
2022-10-17T06:19:44.404Z,16.23
2022-10-17T06:20:46.098Z,16.26
2022-10-17T06:21:44.368Z,16.23
2022-10-17T06:22:44.352Z,16.32
2022-10-17T06:23:44.346Z,16.29
2022-10-17T06:24:44.351Z,16.39
2022-10-17T06:25:44.323Z,16.39
2022-10-17T06:26:44.312Z,16.42
2022-10-17T06:27:44.339Z,16.36
2022-10-17T06:28:44.356Z,16.33
2022-10-17T06:29:44.290Z,16.38
2022-10-17T06:30:44.299Z,16.42
2022-10-17T06:31:44.260Z,16.46
2022-10-17T06:32:44.248Z,16.39
2022-10-17T06:33:44.251Z,16.31
2022-10-17T06:34:44.252Z,16.16
2022-10-17T06:35:44.228Z,16.26
2022-10-17T06:36:44.280Z,16.29
2022-10-17T06:37:44.193Z,16.32
2022-10-17T06:38:44.180Z,16.31
2022-10-17T06:39:44.185Z,16.32
2022-10-17T06:40:44.151Z,16.32
2022-10-17T06:41:44.151Z,16.28
2022-10-17T06:42:44.300Z,16.20
2022-10-17T06:43:44.129Z,16.21
2022-10-17T06:44:44.112Z,16.21
2022-10-17T06:45:44.142Z,16.12
2022-10-17T06:46:44.082Z,16.17
2022-10-17T06:47:44.098Z,16.28
2022-10-17T06:48:44.103Z,16.38
2022-10-17T06:49:44.078Z,16.41
2022-10-17T06:50:44.068Z,16.46
2022-10-17T06:51:44.056Z,16.51
2022-10-17T06:52:44.060Z,16.50
2022-10-17T06:53:44.052Z,16.64
2022-10-17T06:54:44.034Z,16.76
2022-10-17T06:55:43.998Z,16.75
2022-10-17T06:56:43.976Z,16.69
2022-10-17T06:57:43.964Z,16.78
2022-10-17T06:58:43.993Z,16.81
2022-10-17T06:59:43.947Z,16.86
2022-10-17T07:00:44.129Z,16.83
2022-10-17T07:01:46.262Z,16.86
2022-10-17T07:02:43.933Z,16.90
2022-10-17T07:03:43.917Z,16.99
2022-10-17T07:04:43.906Z,17.09
2022-10-17T07:05:43.881Z,17.20
2022-10-17T07:06:43.936Z,17.26
2022-10-17T07:07:45.524Z,17.34
2022-10-17T07:08:43.865Z,17.33
2022-10-17T07:09:43.834Z,17.22
2022-10-17T07:10:43.865Z,17.12
2022-10-17T07:11:43.818Z,17.19
2022-10-17T07:12:43.843Z,17.34
2022-10-17T07:13:43.795Z,17.44
2022-10-17T07:14:43.821Z,17.41
2022-10-17T07:15:43.771Z,17.36
2022-10-17T07:16:43.778Z,17.26
2022-10-17T07:17:43.748Z,17.19
2022-10-17T07:18:44.052Z,17.22
2022-10-17T07:19:43.732Z,17.30
2022-10-17T07:20:43.731Z,17.29
2022-10-17T07:21:43.710Z,17.27
2022-10-17T07:22:43.721Z,17.33
2022-10-17T07:23:43.686Z,17.31
2022-10-17T07:24:43.798Z,17.34
2022-10-17T07:25:43.669Z,17.33
2022-10-17T07:26:43.668Z,17.33
2022-10-17T07:27:43.647Z,17.30
2022-10-17T07:28:43.718Z,17.31
2022-10-17T07:29:43.620Z,17.29
2022-10-17T07:30:43.659Z,17.33
2022-10-17T07:31:43.598Z,17.33
2022-10-17T07:32:43.630Z,17.31
2022-10-17T07:33:43.658Z,17.31
2022-10-17T07:34:43.582Z,17.34
2022-10-17T07:35:43.555Z,17.30
2022-10-17T07:36:43.606Z,17.31
2022-10-17T07:37:43.537Z,17.30
2022-10-17T07:38:43.568Z,17.34
2022-10-17T07:39:43.514Z,17.34
2022-10-17T07:40:43.518Z,17.31
2022-10-17T07:41:43.501Z,17.31
2022-10-17T07:42:43.542Z,17.24
2022-10-17T07:43:43.475Z,17.24
2022-10-17T07:44:43.486Z,17.31
2022-10-17T07:45:43.449Z,17.31
2022-10-17T07:46:43.455Z,17.31
2022-10-17T07:47:43.465Z,17.39
2022-10-17T07:48:43.469Z,17.45
2022-10-17T07:49:43.408Z,17.46
2022-10-17T07:50:43.419Z,17.48
2022-10-17T07:51:43.437Z,17.54
2022-10-17T07:52:43.390Z,17.63
2022-10-17T07:53:46.397Z,17.72
2022-10-17T07:54:43.403Z,17.70
2022-10-17T07:55:43.362Z,17.70
2022-10-17T07:56:43.354Z,17.70
2022-10-17T07:57:43.324Z,17.90
2022-10-17T07:58:43.328Z,17.89
2022-10-17T07:59:43.300Z,18.04
2022-10-17T08:00:43.472Z,18.10
2022-10-17T08:01:43.278Z,18.13
2022-10-17T08:02:43.315Z,18.19
2022-10-17T08:03:43.258Z,18.19
2022-10-17T08:04:43.269Z,18.22
2022-10-17T08:05:43.255Z,18.28
2022-10-17T08:06:43.266Z,18.25
2022-10-17T08:07:43.214Z,18.23
2022-10-17T08:08:43.217Z,18.19
2022-10-17T08:09:43.207Z,18.23
2022-10-17T08:10:43.197Z,18.33
2022-10-17T08:11:43.188Z,18.37
2022-10-17T08:12:43.208Z,18.37
2022-10-17T08:13:43.172Z,18.35
2022-10-17T08:14:43.160Z,18.52
2022-10-17T08:15:43.132Z,18.58
2022-10-17T08:16:43.256Z,18.56
2022-10-17T08:17:43.127Z,18.58
2022-10-17T08:18:43.167Z,18.53
2022-10-17T08:19:43.087Z,18.53
2022-10-17T08:20:43.090Z,18.45
2022-10-17T08:21:43.068Z,18.43
2022-10-17T08:22:43.067Z,18.58
2022-10-17T08:23:43.070Z,18.63
2022-10-17T08:24:43.068Z,18.60
2022-10-17T08:25:43.024Z,18.63
2022-10-17T08:26:44.035Z,18.66
2022-10-17T08:27:43.003Z,18.59
2022-10-17T08:28:43.090Z,18.59
2022-10-17T08:29:42.988Z,18.53
2022-10-17T08:30:43.016Z,18.49
2022-10-17T08:31:47.417Z,18.49
2022-10-17T08:32:42.977Z,18.44
2022-10-17T08:33:42.943Z,18.40
2022-10-17T08:34:42.943Z,18.35
2022-10-17T08:35:42.927Z,18.40
2022-10-17T08:36:42.955Z,18.38
2022-10-17T08:37:42.910Z,18.40
2022-10-17T08:38:43.746Z,18.41
2022-10-17T08:39:42.935Z,18.44
2022-10-17T08:40:42.965Z,18.43
2022-10-17T08:41:42.852Z,18.45
2022-10-17T08:42:42.932Z,18.50
2022-10-17T08:43:42.843Z,18.47
2022-10-17T08:44:42.830Z,18.62
2022-10-17T08:45:42.818Z,18.70
2022-10-17T08:46:42.816Z,18.66
2022-10-17T08:47:42.788Z,18.66
2022-10-17T08:48:46.285Z,18.68
2022-10-17T08:49:42.780Z,18.66
2022-10-17T08:50:42.768Z,18.63
2022-10-17T08:51:42.808Z,18.68
2022-10-17T08:52:42.752Z,18.66
2022-10-17T08:53:42.723Z,18.73
2022-10-17T08:54:42.786Z,18.80
2022-10-17T08:55:45.305Z,18.86
2022-10-17T08:56:50.034Z,18.95
2022-10-17T08:57:42.707Z,19.00
2022-10-17T08:58:42.689Z,19.07
2022-10-17T08:59:42.658Z,19.08
2022-10-17T09:00:42.702Z,19.09
2022-10-17T09:01:42.642Z,19.09
2022-10-17T09:02:42.729Z,19.09
2022-10-17T09:03:42.619Z,19.07
2022-10-17T09:04:42.650Z,19.09
2022-10-17T09:05:42.603Z,19.07
2022-10-17T09:06:42.642Z,19.15
2022-10-17T09:07:42.573Z,19.11
2022-10-17T09:08:42.579Z,19.09
2022-10-17T09:09:42.554Z,19.08
2022-10-17T09:10:42.560Z,19.12
2022-10-17T09:11:42.536Z,19.15
2022-10-17T09:12:42.589Z,19.18
2022-10-17T09:13:42.533Z,19.22
2022-10-17T09:14:42.511Z,19.26
2022-10-17T09:15:42.505Z,19.29
2022-10-17T09:16:42.492Z,19.37
2022-10-17T09:17:42.470Z,19.37
2022-10-17T09:18:42.488Z,19.41
2022-10-17T09:19:42.469Z,19.47
2022-10-17T09:20:42.456Z,19.51
2022-10-17T09:21:42.432Z,19.56
2022-10-17T09:22:42.491Z,19.56
2022-10-17T09:23:42.618Z,19.58
2022-10-17T09:24:42.452Z,19.59
2022-10-17T09:25:42.380Z,19.62
2022-10-17T09:26:42.416Z,19.62
2022-10-17T09:27:42.354Z,19.69
2022-10-17T09:28:42.447Z,19.77
2022-10-17T09:29:43.952Z,19.81
2022-10-17T09:30:46.394Z,19.84
2022-10-17T09:31:42.319Z,19.88
2022-10-17T09:32:42.358Z,19.91
2022-10-17T09:33:57.659Z,19.96
2022-10-17T09:34:42.299Z,20.07
2022-10-17T09:35:42.267Z,20.11
2022-10-17T09:36:42.329Z,20.13
2022-10-17T09:37:42.252Z,20.13
2022-10-17T09:38:42.253Z,20.18
2022-10-17T09:39:42.234Z,20.21
2022-10-17T09:40:42.230Z,20.16
2022-10-17T09:41:46.814Z,20.14
2022-10-17T09:42:42.248Z,20.18
2022-10-17T09:43:42.185Z,20.21
2022-10-17T09:44:42.184Z,20.21
2022-10-17T09:45:42.169Z,20.18
2022-10-17T09:46:42.164Z,20.19
2022-10-17T09:47:42.140Z,20.19
2022-10-17T09:48:42.197Z,20.21
2022-10-17T09:49:42.129Z,20.21
2022-10-17T09:50:42.118Z,20.24
2022-10-17T09:51:42.105Z,20.14
2022-10-17T09:52:42.138Z,20.11
2022-10-17T09:53:42.074Z,20.09
2022-10-17T09:54:42.129Z,20.11
2022-10-17T09:55:42.052Z,20.13
2022-10-17T09:56:42.068Z,20.24
2022-10-17T09:57:42.036Z,20.25
2022-10-17T09:58:42.032Z,20.25
2022-10-17T09:59:42.013Z,20.31
2022-10-17T10:00:42.075Z,20.40
2022-10-17T10:01:41.997Z,20.50
2022-10-17T10:02:41.990Z,20.69
2022-10-17T10:03:41.985Z,20.84
2022-10-17T10:05:03.351Z,20.90
2022-10-17T10:05:41.971Z,20.90
2022-10-17T10:06:41.975Z,20.96
2022-10-17T10:07:41.922Z,21.07
2022-10-17T10:08:41.932Z,21.11
2022-10-17T10:09:41.907Z,21.20
2022-10-17T10:10:41.902Z,21.24
2022-10-17T10:11:41.912Z,21.17
2022-10-17T10:12:41.899Z,21.17
2022-10-17T10:13:41.857Z,21.15
2022-10-17T10:14:44.225Z,21.14
2022-10-17T10:15:41.842Z,21.21
2022-10-17T10:16:41.860Z,21.25
2022-10-17T10:17:41.844Z,21.37
2022-10-17T10:18:41.816Z,21.40
2022-10-17T10:19:41.789Z,21.51
2022-10-17T10:20:41.793Z,21.51
2022-10-17T10:21:45.093Z,21.50
2022-10-17T10:22:41.792Z,21.45
2022-10-17T10:23:41.749Z,21.45
2022-10-17T10:24:41.750Z,21.45
2022-10-17T10:25:41.737Z,21.45
2022-10-17T10:26:41.730Z,21.39
2022-10-17T10:27:41.704Z,21.42
2022-10-17T10:28:41.761Z,21.45
2022-10-17T10:29:41.685Z,21.40
2022-10-17T10:30:41.685Z,21.40
2022-10-17T10:31:41.785Z,21.37
2022-10-17T10:32:41.737Z,21.33
2022-10-17T10:33:41.884Z,21.29
2022-10-17T10:34:41.639Z,21.25
2022-10-17T10:35:41.643Z,21.32
2022-10-17T10:36:41.621Z,21.35
2022-10-17T10:37:41.624Z,21.33
2022-10-17T10:38:41.593Z,21.25
2022-10-17T10:39:41.598Z,21.21
2022-10-17T10:40:41.576Z,21.21
2022-10-17T10:41:41.552Z,21.18
2022-10-17T10:42:41.555Z,21.11
2022-10-17T10:43:41.553Z,21.05
2022-10-17T10:44:41.562Z,21.03
2022-10-17T10:45:49.211Z,21.00
2022-10-17T10:46:41.529Z,21.03
2022-10-17T10:47:41.783Z,20.97
2022-10-17T10:48:41.492Z,20.99
2022-10-17T10:49:41.466Z,21.03
2022-10-17T10:50:45.158Z,21.05
2022-10-17T10:51:41.459Z,21.02
2022-10-17T10:52:41.462Z,20.95
2022-10-17T10:53:41.415Z,21.00
2022-10-17T10:54:41.430Z,21.05
2022-10-17T10:55:41.394Z,21.05
2022-10-17T10:56:41.438Z,21.03
2022-10-17T10:57:41.373Z,21.05
2022-10-17T10:58:42.856Z,21.14
2022-10-17T10:59:41.352Z,21.07
2022-10-17T11:00:41.416Z,20.97
2022-10-17T11:01:41.327Z,20.99
2022-10-17T11:02:41.369Z,20.99
2022-10-17T11:04:41.310Z,20.95
2022-10-17T11:05:41.285Z,20.97
2022-10-17T11:06:41.296Z,20.96
2022-10-17T11:07:41.265Z,20.99
2022-10-17T11:08:41.302Z,20.99
2022-10-17T11:09:41.248Z,20.96
2022-10-17T11:10:41.260Z,20.95
2022-10-17T11:11:41.219Z,21.02
2022-10-17T11:12:41.233Z,21.07
2022-10-17T11:13:41.216Z,21.07
2022-10-17T11:14:41.226Z,21.02
2022-10-17T11:15:41.222Z,21.00
2022-10-17T11:16:41.168Z,20.97
2022-10-17T11:17:41.168Z,21.00
2022-10-17T11:18:41.149Z,21.00
2022-10-17T11:19:41.146Z,21.05
2022-10-17T11:20:41.153Z,21.06
2022-10-17T11:22:41.098Z,21.00
2022-10-17T11:23:41.087Z,20.92
2022-10-17T11:24:41.079Z,20.87
2022-10-17T11:25:41.074Z,20.93
2022-10-17T11:26:41.098Z,20.97
2022-10-17T11:27:41.055Z,20.96
2022-10-17T11:28:41.112Z,21.05
2022-10-17T11:29:41.042Z,21.14
2022-10-17T11:30:41.041Z,21.30
2022-10-17T11:31:41.014Z,21.37
2022-10-17T11:32:41.029Z,21.30
2022-10-17T11:33:40.989Z,21.22
2022-10-17T11:34:40.967Z,21.24
2022-10-17T11:35:40.967Z,21.21
2022-10-17T11:36:42.327Z,21.21
2022-10-17T11:37:41.049Z,21.14
2022-10-17T11:38:40.922Z,21.12
2022-10-17T11:39:40.990Z,21.11
2022-10-17T11:40:40.901Z,21.07
2022-10-17T11:41:40.901Z,20.97
2022-10-17T11:42:40.919Z,20.90
2022-10-17T11:43:40.881Z,20.88
2022-10-17T11:44:40.866Z,20.93
2022-10-17T11:45:40.857Z,20.96
2022-10-17T11:46:40.836Z,20.97
2022-10-17T11:47:40.848Z,20.93
2022-10-17T11:48:40.898Z,20.97
2022-10-17T11:49:41.911Z,20.97
2022-10-17T11:52:57.078Z,20.96
2022-10-17T11:53:40.816Z,20.99
2022-10-17T11:54:40.749Z,20.96
2022-10-17T11:55:40.751Z,20.93
2022-10-17T11:56:42.963Z,20.90
2022-10-17T11:57:40.724Z,20.92
2022-10-17T11:58:40.912Z,20.92
2022-10-17T11:59:40.713Z,20.97
2022-10-17T12:00:42.125Z,21.03
2022-10-17T12:01:40.695Z,20.96
2022-10-17T12:02:40.664Z,20.97
2022-10-17T12:03:41.350Z,20.96
2022-10-17T12:04:42.802Z,20.88
2022-10-17T12:05:40.647Z,20.82
2022-10-17T12:06:40.616Z,20.81
2022-10-17T12:07:40.663Z,20.80
2022-10-17T12:08:40.598Z,20.75
2022-10-17T12:09:40.617Z,20.69
2022-10-17T12:10:40.575Z,20.67
2022-10-17T12:11:40.578Z,20.67
2022-10-17T12:12:40.595Z,20.69
2022-10-17T12:13:40.554Z,20.75
2022-10-17T12:14:40.565Z,20.77
2022-10-17T12:15:44.672Z,20.80
2022-10-17T12:17:40.516Z,20.72
2022-10-17T12:18:40.483Z,20.70
2022-10-17T12:19:40.483Z,20.72
2022-10-17T12:20:40.484Z,20.70
2022-10-17T12:21:42.855Z,20.70
2022-10-17T12:22:40.437Z,20.69
2022-10-17T12:23:40.457Z,20.66
2022-10-17T12:24:40.413Z,20.59
2022-10-17T12:26:40.394Z,20.62
2022-10-17T12:27:40.403Z,20.62
2022-10-17T12:28:40.399Z,20.62
2022-10-17T12:29:40.375Z,20.62
2022-10-17T12:30:40.432Z,20.62
2022-10-17T12:31:40.374Z,20.62
2022-10-17T12:33:03.836Z,20.60
2022-10-17T12:33:40.392Z,20.52
2022-10-17T12:34:40.371Z,20.47
2022-10-17T12:35:40.309Z,20.43
2022-10-17T12:36:40.313Z,20.41
2022-10-17T12:37:40.287Z,20.40
2022-10-17T12:38:40.262Z,20.40
2022-10-17T12:39:40.268Z,20.43
2022-10-17T12:40:41.501Z,20.52
2022-10-17T12:41:40.394Z,20.58
2022-10-17T12:42:40.218Z,20.60
2022-10-17T12:43:44.113Z,20.65
2022-10-17T12:44:40.290Z,20.66
2022-10-17T12:45:40.212Z,20.62
2022-10-17T12:46:40.211Z,20.59
2022-10-17T12:47:40.174Z,20.59
2022-10-17T12:48:40.190Z,20.56
2022-10-17T12:49:40.156Z,20.55
2022-10-17T12:50:40.137Z,20.51
2022-10-17T12:51:40.142Z,20.52
2022-10-17T12:52:40.176Z,20.62
2022-10-17T12:53:40.110Z,20.65
2022-10-17T12:54:47.724Z,20.65
2022-10-17T12:55:40.093Z,20.67
2022-10-17T12:56:40.066Z,20.65
2022-10-17T12:57:40.092Z,20.63
2022-10-17T12:58:40.049Z,20.59
2022-10-17T12:59:40.045Z,20.56
2022-10-17T13:00:40.046Z,20.56
2022-10-17T13:01:40.064Z,20.55
2022-10-17T13:02:40.024Z,20.58